Time;durP1;ratioP1;P1;durP2;ratioP2;P2;SDS_P1;SDS_P2;PMS_P1;PMS_P2;Temp;Humidity;BMP_temperature;BMP_pressure;BME280_temperature;BME280_humidity;BME280_pressure;Samples;Min_cycle;Max_cycle;Signal;HPM_P1;HPM_P2
2023/03/05 00:02:19;;;;;;;8.25;1.85;;;;;;;;;;6309915;22;20034;-82
2023/03/05 00:04:45;;;;;;;8.85;2.20;;;;;;;;;;6281951;22;20028;-81
2023/03/05 00:07:13;;;;;;;10.40;2.75;;;;;;;;;;6309124;22;20030;-83
2023/03/05 00:09:39;;;;;;;12.10;2.42;;;;;;;;;;6310433;22;20071;-82
2023/03/05 00:12:06;;;;;;;8.40;1.90;;;;;;;;;;6310151;22;20476;-81
2023/03/05 00:14:32;;;;;;;10.95;2.35;;;;;;;;;;6309782;22;20019;-81
2023/03/05 00:16:58;;;;;;;11.70;2.30;;;;;;;;;;6309035;22;20024;-81
2023/03/05 00:19:25;;;;;;;7.97;2.00;;;;;;;;;;6311670;22;20023;-83
2023/03/05 00:21:51;;;;;;;11.27;2.25;;;;;;;;;;6310530;22;20023;-83
2023/03/05 00:24:18;;;;;;;7.93;2.15;;;;;;;;;;6310429;22;20361;-85
2023/03/05 00:26:44;;;;;;;10.48;2.72;;;;;;;;;;6283544;22;20024;-82
2023/03/05 00:29:13;;;;;;;17.35;3.10;;;;;;;;;;6309485;22;20015;-79
2023/03/05 00:31:39;;;;;;;12.82;3.00;;;;;;;;;;6311163;22;20031;-80
2023/03/05 00:34:07;;;;;;;11.57;2.70;;;;;;;;;;6309537;22;20020;-83
2023/03/05 00:36:37;;;;;;;14.65;3.40;;;;;;;;;;6310780;22;20084;-82
2023/03/05 00:39:04;;;;;;;12.52;3.80;;;;;;;;;;6310923;22;20020;-82
2023/03/05 00:41:30;;;;;;;13.43;3.47;;;;;;;;;;6282660;22;20023;-84
2023/03/05 00:43:56;;;;;;;9.60;2.90;;;;;;;;;;6309090;22;20012;-83
2023/03/05 00:46:23;;;;;;;7.43;2.15;;;;;;;;;;6323842;22;20012;-85
2023/03/05 00:48:49;;;;;;;14.50;2.70;;;;;;;;;;6325218;22;20038;-84
2023/03/05 00:51:16;;;;;;;10.25;2.22;;;;;;;;;;6325366;22;20019;-83
2023/03/05 00:53:42;;;;;;;13.57;2.70;;;;;;;;;;6322914;22;20024;-84
2023/03/05 00:56:08;;;;;;;18.63;2.70;;;;;;;;;;6322690;22;20016;-84
2023/03/05 00:58:35;;;;;;;14.38;2.40;;;;;;;;;;6323687;22;20080;-83
2023/03/05 01:01:01;;;;;;;10.05;3.00;;;;;;;;;;6327061;22;20007;-85
2023/03/05 01:03:28;;;;;;;10.70;2.47;;;;;;;;;;6325126;22;20008;-85
2023/03/05 01:05:55;;;;;;;11.20;2.13;;;;;;;;;;6325842;22;20015;-85
2023/03/05 01:08:21;;;;;;;8.93;2.70;;;;;;;;;;6297523;22;20035;-84
2023/03/05 01:10:48;;;;;;;13.38;2.35;;;;;;;;;;6324594;22;20023;-83
2023/03/05 01:13:14;;;;;;;11.27;2.67;;;;;;;;;;6296326;22;20024;-84
2023/03/05 01:15:40;;;;;;;14.30;3.35;;;;;;;;;;6320179;22;20071;-84
2023/03/05 01:18:07;;;;;;;10.20;2.25;;;;;;;;;;6318227;22;20011;-81
2023/03/05 01:20:33;;;;;;;15.65;3.10;;;;;;;;;;6316198;22;20361;-84
2023/03/05 01:23:00;;;;;;;12.85;2.63;;;;;;;;;;6313885;22;20466;-80
2023/03/05 01:25:27;;;;;;;9.48;2.50;;;;;;;;;;6287824;22;20050;-84
2023/03/05 01:27:53;;;;;;;9.05;2.65;;;;;;;;;;6314283;22;20279;-84
2023/03/05 01:30:20;;;;;;;14.32;2.63;;;;;;;;;;6313252;22;20067;-84
2023/03/05 01:32:46;;;;;;;11.05;2.55;;;;;;;;;;6311493;22;20034;-82
2023/03/05 01:35:17;;;;;;;11.48;2.53;;;;;;;;;;6313876;22;20957;-79
2023/03/05 01:37:44;;;;;;;6.97;2.40;;;;;;;;;;6315520;22;20015;-83
2023/03/05 01:40:10;;;;;;;17.05;3.38;;;;;;;;;;6313347;22;20051;-81
2023/03/05 01:42:37;;;;;;;8.55;2.80;;;;;;;;;;6314255;22;20027;-84
2023/03/05 01:45:04;;;;;;;7.15;2.08;;;;;;;;;;6307741;22;20023;-83
2023/03/05 01:47:30;;;;;;;9.55;2.50;;;;;;;;;;6279076;22;20757;-82
2023/03/05 01:49:57;;;;;;;14.30;4.07;;;;;;;;;;6306110;22;20601;-81
2023/03/05 01:52:23;;;;;;;11.90;3.20;;;;;;;;;;6305921;22;20328;-80
2023/03/05 01:54:55;;;;;;;11.55;2.45;;;;;;;;;;6304829;22;20043;-80
2023/03/05 01:57:31;;;;;;;12.85;2.25;;;;;;;;;;6278578;22;20019;-80
2023/03/05 01:59:59;;;;;;;8.82;2.08;;;;;;;;;;6305966;22;20314;-82
2023/03/05 02:02:26;;;;;;;13.10;2.38;;;;;;;;;;6305549;22;20038;-81
2023/03/05 02:04:54;;;;;;;8.90;2.85;;;;;;;;;;6306318;22;20066;-80
2023/03/05 02:07:21;;;;;;;7.07;2.13;;;;;;;;;;6308482;22;20034;-84
2023/03/05 02:09:48;;;;;;;10.02;2.53;;;;;;;;;;6308852;22;20027;-79
2023/03/05 02:12:14;;;;;;;11.85;2.80;;;;;;;;;;6307466;22;20477;-83
2023/03/05 02:14:41;;;;;;;9.90;2.50;;;;;;;;;;6279524;22;20079;-84
2023/03/05 02:17:09;;;;;;;10.13;2.58;;;;;;;;;;6308585;22;20024;-81
2023/03/05 02:19:49;;;;;;;11.77;2.83;;;;;;;;;;6311410;22;20020;-81
2023/03/05 02:22:16;;;;;;;8.75;2.42;;;;;;;;;;6309003;22;20035;-80
2023/03/05 02:24:43;;;;;;;6.65;2.40;;;;;;;;;;6306587;22;20031;-79
2023/03/05 02:27:11;;;;;;;11.65;3.40;;;;;;;;;;6308809;22;20023;-83
2023/03/05 02:29:39;;;;;;;11.95;3.28;;;;;;;;;;6281020;22;20016;-82
2023/03/05 02:32:07;;;;;;;10.13;3.13;;;;;;;;;;6308105;22;20031;-82
2023/03/05 02:34:34;;;;;;;15.00;3.35;;;;;;;;;;6280204;22;20038;-79
2023/03/05 02:37:03;;;;;;;11.07;3.08;;;;;;;;;;6307479;22;20031;-82
2023/03/05 02:39:30;;;;;;;10.95;3.30;;;;;;;;;;6308839;22;20022;-80
2023/03/05 02:41:56;;;;;;;9.43;3.30;;;;;;;;;;6308651;22;20109;-81
2023/03/05 02:44:23;;;;;;;13.82;3.40;;;;;;;;;;6307556;22;20032;-83
2023/03/05 02:46:49;;;;;;;11.63;4.03;;;;;;;;;;6306081;22;20103;-81
2023/03/05 02:49:15;;;;;;;10.65;3.53;;;;;;;;;;6308816;22;20027;-81
2023/03/05 02:51:42;;;;;;;13.07;3.83;;;;;;;;;;6308508;22;20026;-82
2023/03/05 02:54:08;;;;;;;12.38;3.50;;;;;;;;;;6307703;22;20843;-80
2023/03/05 02:56:37;;;;;;;10.43;3.45;;;;;;;;;;6309081;22;20022;-81
2023/03/05 02:59:03;;;;;;;15.13;3.45;;;;;;;;;;6309373;22;20099;-85
2023/03/05 03:01:29;;;;;;;9.02;3.70;;;;;;;;;;6309881;22;20039;-84
2023/03/05 03:03:56;;;;;;;12.05;3.97;;;;;;;;;;6306696;22;20081;-81
2023/03/05 03:06:22;;;;;;;10.85;4.00;;;;;;;;;;6306772;22;20035;-82
2023/03/05 03:08:49;;;;;;;11.27;3.28;;;;;;;;;;6307629;22;20034;-80
2023/03/05 03:11:16;;;;;;;10.63;4.25;;;;;;;;;;6308066;22;20123;-81
2023/03/05 03:13:42;;;;;;;14.88;3.90;;;;;;;;;;6305191;22;20026;-82
2023/03/05 03:16:11;;;;;;;13.73;3.17;;;;;;;;;;6309338;22;20022;-81
2023/03/05 03:18:38;;;;;;;11.98;3.33;;;;;;;;;;6310445;22;20028;-85
2023/03/05 03:21:05;;;;;;;10.32;3.75;;;;;;;;;;6308906;22;20050;-80
2023/03/05 03:23:32;;;;;;;11.15;3.30;;;;;;;;;;6307709;22;20058;-80
2023/03/05 03:25:58;;;;;;;9.48;3.05;;;;;;;;;;6306930;22;20028;-82
2023/03/05 03:28:24;;;;;;;12.50;3.08;;;;;;;;;;6281204;22;20086;-80
2023/03/05 03:30:51;;;;;;;10.38;2.90;;;;;;;;;;6308696;22;20051;-80
2023/03/05 03:33:17;;;;;;;8.70;2.78;;;;;;;;;;6307590;22;20106;-83
2023/03/05 03:35:45;;;;;;;10.13;2.67;;;;;;;;;;6279791;22;20022;-81
2023/03/05 03:38:12;;;;;;;8.85;2.60;;;;;;;;;;6307763;22;20028;-80
2023/03/05 03:40:40;;;;;;;7.63;2.50;;;;;;;;;;6281487;22;20011;-82
2023/03/05 03:43:06;;;;;;;15.70;3.17;;;;;;;;;;6306931;22;20082;-82
2023/03/05 03:45:33;;;;;;;10.55;3.05;;;;;;;;;;6308096;22;20422;-81
2023/03/05 03:47:59;;;;;;;12.75;2.53;;;;;;;;;;6306903;22;20055;-80
2023/03/05 03:50:26;;;;;;;10.40;3.25;;;;;;;;;;6306686;22;20031;-79
2023/03/05 03:52:52;;;;;;;12.45;2.85;;;;;;;;;;6306547;22;20023;-84
2023/03/05 03:55:19;;;;;;;11.50;2.60;;;;;;;;;;6279239;22;20107;-83
2023/03/05 03:57:45;;;;;;;7.50;2.22;;;;;;;;;;6306640;22;20031;-81
2023/03/05 04:00:12;;;;;;;12.88;3.00;;;;;;;;;;6279975;22;20425;-81
2023/03/05 04:02:38;;;;;;;8.43;2.70;;;;;;;;;;6307201;22;20019;-83
2023/03/05 04:05:05;;;;;;;8.88;2.70;;;;;;;;;;6280344;22;20016;-83
2023/03/05 04:07:32;;;;;;;9.27;2.53;;;;;;;;;;6308699;22;20048;-81
2023/03/05 04:09:58;;;;;;;6.93;2.20;;;;;;;;;;6280065;22;20496;-81
2023/03/05 04:12:24;;;;;;;8.35;2.72;;;;;;;;;;6306090;22;20026;-81
2023/03/05 04:14:51;;;;;;;7.25;2.30;;;;;;;;;;6306359;22;20027;-81
2023/03/05 04:17:18;;;;;;;9.27;2.22;;;;;;;;;;6280555;22;20019;-85
2023/03/05 04:19:44;;;;;;;7.90;2.30;;;;;;;;;;6308752;22;20573;-83
2023/03/05 04:22:11;;;;;;;7.13;2.15;;;;;;;;;;6307719;22;20034;-81
2023/03/05 04:24:37;;;;;;;9.60;2.20;;;;;;;;;;6305953;22;20024;-84
2023/03/05 04:27:05;;;;;;;9.85;2.55;;;;;;;;;;6308226;22;20952;-83
2023/03/05 04:29:31;;;;;;;7.05;2.08;;;;;;;;;;6309135;22;20026;-81
2023/03/05 04:31:58;;;;;;;8.27;2.25;;;;;;;;;;6280284;22;20022;-81
2023/03/05 04:34:24;;;;;;;13.60;2.30;;;;;;;;;;6307592;22;20028;-84
2023/03/05 04:36:51;;;;;;;9.18;2.20;;;;;;;;;;6305950;22;20019;-82
2023/03/05 04:39:19;;;;;;;7.85;2.10;;;;;;;;;;6306974;22;20058;-82
2023/03/05 04:41:46;;;;;;;13.63;2.50;;;;;;;;;;6278218;22;20788;-81
2023/03/05 04:44:13;;;;;;;7.53;3.00;;;;;;;;;;6278564;22;20020;-83
2023/03/05 04:46:39;;;;;;;9.13;2.10;;;;;;;;;;6306751;22;20032;-82
2023/03/05 04:49:05;;;;;;;7.32;2.00;;;;;;;;;;6306771;22;20078;-81
2023/03/05 04:51:32;;;;;;;8.57;1.85;;;;;;;;;;6307868;22;20023;-83
2023/03/05 04:53:58;;;;;;;12.25;2.42;;;;;;;;;;6278502;22;20036;-81
2023/03/05 04:56:24;;;;;;;7.15;1.83;;;;;;;;;;6279907;22;20027;-80
2023/03/05 04:58:51;;;;;;;11.27;2.30;;;;;;;;;;6306999;22;20032;-81
2023/03/05 05:01:17;;;;;;;6.78;2.00;;;;;;;;;;6308082;22;20067;-80
2023/03/05 05:03:44;;;;;;;5.32;1.67;;;;;;;;;;6307051;22;20046;-84
2023/03/05 05:06:10;;;;;;;8.07;1.95;;;;;;;;;;6307833;22;20093;-84
2023/03/05 05:08:37;;;;;;;6.95;1.73;;;;;;;;;;6308750;22;20020;-82
2023/03/05 05:11:05;;;;;;;6.13;2.20;;;;;;;;;;6307598;22;20055;-84
2023/03/05 05:13:31;;;;;;;10.45;2.17;;;;;;;;;;6306766;22;20028;-81
2023/03/05 05:15:58;;;;;;;11.43;1.98;;;;;;;;;;6308023;22;20467;-81
2023/03/05 05:18:24;;;;;;;4.68;1.88;;;;;;;;;;6310306;22;20093;-81
2023/03/05 05:20:51;;;;;;;8.55;2.03;;;;;;;;;;6309108;22;20114;-84
2023/03/05 05:23:17;;;;;;;11.68;2.05;;;;;;;;;;6307850;22;20027;-82
2023/03/05 05:25:44;;;;;;;5.07;1.80;;;;;;;;;;6307633;22;20615;-81
2023/03/05 05:28:10;;;;;;;7.28;1.90;;;;;;;;;;6307870;22;20905;-82
2023/03/05 05:30:37;;;;;;;10.63;2.17;;;;;;;;;;6308158;22;20024;-86
2023/03/05 05:33:03;;;;;;;6.47;1.70;;;;;;;;;;6306848;22;20084;-83
2023/03/05 05:35:30;;;;;;;8.43;1.90;;;;;;;;;;6308357;22;20031;-80
2023/03/05 05:37:56;;;;;;;4.05;1.63;;;;;;;;;;6306538;22;20379;-82
2023/03/05 05:40:23;;;;;;;6.97;1.80;;;;;;;;;;6307170;22;20016;-79
2023/03/05 05:42:49;;;;;;;7.88;1.90;;;;;;;;;;6279254;22;20030;-80
2023/03/05 05:45:16;;;;;;;7.20;1.95;;;;;;;;;;6305993;22;20034;-80
2023/03/05 05:47:42;;;;;;;8.15;2.20;;;;;;;;;;6306704;22;20078;-84
2023/03/05 05:50:10;;;;;;;11.77;1.90;;;;;;;;;;6306725;22;20510;-81
2023/03/05 05:52:36;;;;;;;11.90;2.00;;;;;;;;;;6279631;22;20090;-80
2023/03/05 05:55:02;;;;;;;9.15;2.15;;;;;;;;;;6305264;22;20081;-83
2023/03/05 05:57:29;;;;;;;10.00;2.35;;;;;;;;;;6301745;22;20031;-81
2023/03/05 05:59:55;;;;;;;9.93;2.20;;;;;;;;;;6301233;22;20028;-81
2023/03/05 06:02:22;;;;;;;6.90;1.90;;;;;;;;;;6301954;22;20073;-83
2023/03/05 06:04:48;;;;;;;7.45;2.17;;;;;;;;;;6300597;22;20008;-79
2023/03/05 06:07:15;;;;;;;8.23;2.20;;;;;;;;;;6275333;22;21217;-79
2023/03/05 06:09:41;;;;;;;5.53;1.75;;;;;;;;;;6302081;22;20063;-84
2023/03/05 06:12:08;;;;;;;7.97;2.08;;;;;;;;;;6301692;22;20131;-81
2023/03/05 06:14:34;;;;;;;10.35;2.20;;;;;;;;;;6301502;22;20028;-80
2023/03/05 06:17:01;;;;;;;8.07;2.45;;;;;;;;;;6302791;22;20100;-80
2023/03/05 06:19:27;;;;;;;8.93;2.10;;;;;;;;;;6275312;22;20031;-80
2023/03/05 06:21:53;;;;;;;9.25;2.10;;;;;;;;;;6301881;22;20026;-78
2023/03/05 06:24:21;;;;;;;6.53;2.00;;;;;;;;;;6300232;22;20488;-83
2023/03/05 06:26:48;;;;;;;7.93;2.20;;;;;;;;;;6302629;22;20482;-81
2023/03/05 06:29:14;;;;;;;7.97;2.00;;;;;;;;;;6276239;22;20337;-83
2023/03/05 06:31:41;;;;;;;12.23;2.28;;;;;;;;;;6303069;22;20031;-81
2023/03/05 06:34:07;;;;;;;6.68;2.03;;;;;;;;;;6301579;22;20028;-80
2023/03/05 06:36:33;;;;;;;9.82;2.30;;;;;;;;;;6303243;22;20471;-82
2023/03/05 06:39:00;;;;;;;7.45;2.28;;;;;;;;;;6303428;22;20115;-79
2023/03/05 06:41:27;;;;;;;8.43;2.50;;;;;;;;;;6304746;22;20099;-80
2023/03/05 06:43:54;;;;;;;7.30;2.30;;;;;;;;;;6302590;22;20024;-84
2023/03/05 06:46:25;;;;;;;7.60;2.25;;;;;;;;;;6276991;22;20055;-79
2023/03/05 06:48:53;;;;;;;9.43;2.20;;;;;;;;;;6303563;22;20448;-82
2023/03/05 06:51:21;;;;;;;9.38;2.38;;;;;;;;;;6304686;22;20016;-82
2023/03/05 06:53:48;;;;;;;9.38;2.40;;;;;;;;;;6304453;22;20027;-83
2023/03/05 06:56:15;;;;;;;5.95;2.55;;;;;;;;;;6278296;22;20102;-78
2023/03/05 06:58:43;;;;;;;8.70;2.63;;;;;;;;;;6278222;22;20101;-83
2023/03/05 07:01:09;;;;;;;8.75;2.40;;;;;;;;;;6307608;22;20042;-82
2023/03/05 07:03:36;;;;;;;6.30;2.30;;;;;;;;;;6306834;22;20074;-79
2023/03/05 07:06:06;;;;;;;10.90;2.78;;;;;;;;;;6306248;22;20027;-83
2023/03/05 07:08:33;;;;;;;8.70;2.75;;;;;;;;;;6306649;22;20046;-82
2023/03/05 07:10:59;;;;;;;7.60;2.53;;;;;;;;;;6306082;22;20023;-81
2023/03/05 07:13:27;;;;;;;9.30;2.85;;;;;;;;;;6304893;22;20024;-80
2023/03/05 07:15:53;;;;;;;7.18;2.25;;;;;;;;;;6304917;22;20027;-81
2023/03/05 07:18:20;;;;;;;7.95;2.33;;;;;;;;;;6304390;22;20835;-83
2023/03/05 07:20:46;;;;;;;7.63;2.70;;;;;;;;;;6305091;22;20023;-80
2023/03/05 07:23:14;;;;;;;8.00;2.53;;;;;;;;;;6275643;22;20054;-81
2023/03/05 07:25:40;;;;;;;6.43;2.72;;;;;;;;;;6305519;22;20008;-81
2023/03/05 07:28:07;;;;;;;6.03;2.30;;;;;;;;;;6307991;22;20420;-80
2023/03/05 07:30:33;;;;;;;8.60;2.45;;;;;;;;;;6305777;22;20028;-81
2023/03/05 07:33:00;;;;;;;8.18;2.60;;;;;;;;;;6303965;22;20457;-84
2023/03/05 07:35:27;;;;;;;9.75;3.10;;;;;;;;;;6304579;22;20112;-80
2023/03/05 07:37:54;;;;;;;7.90;2.63;;;;;;;;;;6302673;22;20028;-81
2023/03/05 07:40:21;;;;;;;6.57;2.80;;;;;;;;;;6303050;22;20011;-81
2023/03/05 07:42:47;;;;;;;10.27;2.47;;;;;;;;;;6306399;22;20026;-83
2023/03/05 07:45:14;;;;;;;5.63;2.28;;;;;;;;;;6305921;22;20062;-81
2023/03/05 07:47:40;;;;;;;4.68;1.85;;;;;;;;;;6275173;22;20520;-86
2023/03/05 07:50:07;;;;;;;6.85;2.15;;;;;;;;;;6304307;22;20027;-84
2023/03/05 07:52:33;;;;;;;5.38;2.05;;;;;;;;;;6303302;22;20032;-82
2023/03/05 07:55:00;;;;;;;9.20;2.20;;;;;;;;;;6274994;22;20562;-84
2023/03/05 07:57:26;;;;;;;9.80;2.20;;;;;;;;;;6303019;22;20070;-81
2023/03/05 07:59:52;;;;;;;8.52;2.63;;;;;;;;;;6304574;22;20032;-82
2023/03/05 08:02:20;;;;;;;8.75;2.75;;;;;;;;;;6306028;22;20511;-83
2023/03/05 08:04:46;;;;;;;5.40;2.30;;;;;;;;;;6276255;22;20024;-80
2023/03/05 08:07:14;;;;;;;7.68;2.42;;;;;;;;;;6307210;22;20042;-82
2023/03/05 08:09:41;;;;;;;4.07;1.60;;;;;;;;;;6302371;22;20541;-85
2023/03/05 08:12:09;;;;;;;3.83;1.55;;;;;;;;;;6308545;22;20109;-84
2023/03/05 08:14:36;;;;;;;5.95;1.63;;;;;;;;;;6305482;22;20026;-84
2023/03/05 08:17:03;;;;;;;4.57;1.40;;;;;;;;;;6304997;22;20016;-81
2023/03/05 08:19:30;;;;;;;3.60;1.40;;;;;;;;;;6310981;22;20020;-83
2023/03/05 08:21:56;;;;;;;7.95;1.70;;;;;;;;;;6306248;22;20119;-83
2023/03/05 08:24:28;;;;;;;4.22;1.75;;;;;;;;;;6305194;22;20850;-83
2023/03/05 08:26:56;;;;;;;8.70;1.58;;;;;;;;;;6307832;22;20110;-86
2023/03/05 08:29:22;;;;;;;4.97;1.40;;;;;;;;;;6307147;22;20046;-83
2023/03/05 08:31:49;;;;;;;6.75;2.00;;;;;;;;;;6281360;22;20468;-82
2023/03/05 08:34:16;;;;;;;4.30;1.77;;;;;;;;;;6308422;22;20035;-85
2023/03/05 08:36:42;;;;;;;3.83;1.27;;;;;;;;;;6279990;22;20023;-83
2023/03/05 08:39:09;;;;;;;4.82;1.52;;;;;;;;;;6308675;22;20750;-86
2023/03/05 08:41:35;;;;;;;4.65;2.03;;;;;;;;;;6310305;22;20837;-85
2023/03/05 08:44:02;;;;;;;4.47;1.50;;;;;;;;;;6308197;22;20063;-82
2023/03/05 08:46:29;;;;;;;5.75;1.65;;;;;;;;;;6308562;22;20107;-82
2023/03/05 08:48:55;;;;;;;5.85;1.50;;;;;;;;;;6307976;22;20058;-83
2023/03/05 08:51:26;;;;;;;7.60;2.22;;;;;;;;;;6307874;22;20028;-85
2023/03/05 08:53:53;;;;;;;5.18;2.55;;;;;;;;;;6306448;22;20039;-83
2023/03/05 08:56:20;;;;;;;7.53;1.90;;;;;;;;;;6280376;22;20786;-85
2023/03/05 08:58:47;;;;;;;5.32;1.63;;;;;;;;;;6307943;22;20012;-85
2023/03/05 09:01:13;;;;;;;6.82;1.77;;;;;;;;;;6309130;22;20042;-84
2023/03/05 09:03:40;;;;;;;6.88;1.63;;;;;;;;;;6307435;22;20024;-84
2023/03/05 09:06:08;;;;;;;5.57;1.55;;;;;;;;;;6281020;22;20787;-86
2023/03/05 09:08:35;;;;;;;5.40;1.80;;;;;;;;;;6308900;22;20094;-85
2023/03/05 09:11:02;;;;;;;6.63;1.75;;;;;;;;;;6308430;22;20020;-82
2023/03/05 09:13:29;;;;;;;6.90;1.60;;;;;;;;;;6307796;22;20078;-83
2023/03/05 09:15:56;;;;;;;6.82;1.65;;;;;;;;;;6308209;22;20024;-84
2023/03/05 09:18:22;;;;;;;5.88;1.88;;;;;;;;;;6308358;22;20016;-82
2023/03/05 09:20:49;;;;;;;4.60;1.75;;;;;;;;;;6280843;22;20494;-84
2023/03/05 09:23:15;;;;;;;4.97;1.98;;;;;;;;;;6305882;22;20055;-84
2023/03/05 09:25:41;;;;;;;4.63;1.80;;;;;;;;;;6306501;22;20047;-84
2023/03/05 09:28:08;;;;;;;5.07;1.70;;;;;;;;;;6306700;22;20019;-82
2023/03/05 09:30:34;;;;;;;5.40;2.03;;;;;;;;;;6306683;22;20095;-82
2023/03/05 09:33:01;;;;;;;6.30;1.70;;;;;;;;;;6305663;22;20024;-83
2023/03/05 09:35:28;;;;;;;5.95;1.80;;;;;;;;;;6306525;22;20030;-83
2023/03/05 09:37:54;;;;;;;4.95;1.50;;;;;;;;;;6306332;22;20110;-83
2023/03/05 09:40:21;;;;;;;4.53;1.60;;;;;;;;;;6306481;22;20008;-82
2023/03/05 09:42:53;;;;;;;4.75;1.80;;;;;;;;;;6302809;22;20039;-82
2023/03/05 09:45:26;;;;;;;8.93;2.00;;;;;;;;;;6277270;22;20035;-84
2023/03/05 09:48:15;;;;;;;8.50;2.10;;;;;;;;;;6304077;22;20800;-82
2023/03/05 09:50:55;;;;;;;8.20;3.13;;;;;;;;;;6295474;22;20921;-85
2023/03/05 09:53:30;;;;;;;7.40;2.22;;;;;;;;;;6303262;22;20016;-84
2023/03/05 09:55:58;;;;;;;8.82;2.83;;;;;;;;;;6306538;22;20031;-84
2023/03/05 09:58:26;;;;;;;7.72;1.90;;;;;;;;;;6306498;22;20011;-82
2023/03/05 10:01:04;;;;;;;5.13;2.30;;;;;;;;;;6307339;22;20049;-85
2023/03/05 10:03:33;;;;;;;5.15;1.73;;;;;;;;;;6306832;22;20031;-82
2023/03/05 10:06:05;;;;;;;3.80;1.80;;;;;;;;;;6307319;22;20075;-83
2023/03/05 10:08:44;;;;;;;6.68;1.63;;;;;;;;;;6308391;22;20023;-82
2023/03/05 10:11:23;;;;;;;6.60;2.00;;;;;;;;;;6307061;22;20126;-84
2023/03/05 10:13:51;;;;;;;5.13;1.48;;;;;;;;;;6304101;22;20111;-81
2023/03/05 10:16:26;;;;;;;5.63;1.30;;;;;;;;;;6306041;22;20020;-82
2023/03/05 10:19:01;;;;;;;3.83;1.10;;;;;;;;;;6304713;22;20012;-84
2023/03/05 10:21:32;;;;;;;8.00;2.00;;;;;;;;;;6275380;22;20023;-83
2023/03/05 10:24:10;;;;;;;8.75;2.30;;;;;;;;;;6301654;22;20102;-84
2023/03/05 10:26:55;;;;;;;5.53;1.50;;;;;;;;;;6306558;22;20027;-84
2023/03/05 10:29:40;;;;;;;5.70;1.60;;;;;;;;;;6306178;22;20027;-82
2023/03/05 10:32:22;;;;;;;4.38;1.20;;;;;;;;;;6303865;22;20031;-81
2023/03/05 10:34:54;;;;;;;6.68;1.33;;;;;;;;;;6304490;22;20058;-79
2023/03/05 10:37:34;;;;;;;6.82;1.27;;;;;;;;;;6304345;22;20019;-80
2023/03/05 10:40:00;;;;;;;3.88;1.20;;;;;;;;;;6277040;22;20028;-82
2023/03/05 10:42:32;;;;;;;5.68;1.17;;;;;;;;;;6276650;22;20089;-81
2023/03/05 10:45:00;;;;;;;4.10;0.90;;;;;;;;;;6303901;22;20020;-79
2023/03/05 10:47:38;;;;;;;6.38;1.20;;;;;;;;;;6275646;22;20524;-82
2023/03/05 10:50:13;;;;;;;3.25;1.23;;;;;;;;;;6302407;22;20069;-80
2023/03/05 10:52:45;;;;;;;5.63;1.10;;;;;;;;;;6301981;22;20298;-81
2023/03/05 10:55:16;;;;;;;5.43;1.00;;;;;;;;;;6302846;22;20423;-80
2023/03/05 10:57:42;;;;;;;3.72;0.85;;;;;;;;;;6301641;22;20054;-81
2023/03/05 11:00:20;;;;;;;4.88;1.27;;;;;;;;;;6276692;22;20028;-82
2023/03/05 11:02:54;;;;;;;5.18;1.23;;;;;;;;;;6303092;22;20023;-81
2023/03/05 11:05:39;;;;;;;3.17;1.20;;;;;;;;;;6303490;22;20076;-82
2023/03/05 11:08:18;;;;;;;7.80;1.15;;;;;;;;;;6276663;22;20094;-81
2023/03/05 11:10:44;;;;;;;5.45;1.08;;;;;;;;;;6302769;22;20054;-81
2023/03/05 11:13:22;;;;;;;4.03;0.90;;;;;;;;;;6304497;22;20031;-80
2023/03/05 11:15:57;;;;;;;4.15;1.15;;;;;;;;;;6303530;22;20059;-81
2023/03/05 11:18:24;;;;;;;8.50;2.22;;;;;;;;;;6303953;22;20043;-83
2023/03/05 11:20:50;;;;;;;10.02;3.22;;;;;;;;;;6308832;22;20063;-82
2023/03/05 11:23:23;;;;;;;4.60;1.35;;;;;;;;;;6310654;22;20024;-81
2023/03/05 11:25:53;;;;;;;4.55;1.30;;;;;;;;;;6282957;22;20016;-83
2023/03/05 11:28:22;;;;;;;2.90;0.95;;;;;;;;;;6308074;22;20019;-81
2023/03/05 11:30:57;;;;;;;3.65;1.00;;;;;;;;;;6283658;22;20147;-82
2023/03/05 11:33:24;;;;;;;3.47;1.30;;;;;;;;;;6311557;22;20024;-81
2023/03/05 11:35:52;;;;;;;3.50;0.90;;;;;;;;;;6309965;22;20442;-81
2023/03/05 11:38:23;;;;;;;4.10;1.38;;;;;;;;;;6310922;22;20028;-81
2023/03/05 11:40:49;;;;;;;;;;;;;;;;;;6308305;22;20016;-81
2023/03/05 11:43:17;;;;;;;2.92;0.90;;;;;;;;;;6302209;22;43368;-80
2023/03/05 11:45:44;;;;;;;4.30;1.10;;;;;;;;;;6304355;22;20038;-83
2023/03/05 11:48:15;;;;;;;4.45;1.08;;;;;;;;;;6307357;22;20532;-83
2023/03/05 11:50:42;;;;;;;7.20;1.20;;;;;;;;;;6280912;22;20023;-81
2023/03/05 11:53:17;;;;;;;4.70;0.82;;;;;;;;;;6277990;22;20024;-81
2023/03/05 11:55:45;;;;;;;4.88;1.35;;;;;;;;;;6309062;22;20008;-82
2023/03/05 11:58:23;;;;;;;3.03;0.90;;;;;;;;;;6310667;22;20073;-81
2023/03/05 12:00:50;;;;;;;4.43;1.30;;;;;;;;;;6319494;22;20030;-82
2023/03/05 12:03:21;;;;;;;5.32;1.90;;;;;;;;;;6312429;22;20063;-82
2023/03/05 12:05:50;;;;;;;4.65;1.35;;;;;;;;;;6313741;22;20070;-81
2023/03/05 12:08:20;;;;;;;4.70;0.80;;;;;;;;;;6313221;22;20012;-82
2023/03/05 12:10:46;;;;;;;4.13;0.90;;;;;;;;;;6310795;22;21189;-82
2023/03/05 12:13:22;;;;;;;6.00;1.10;;;;;;;;;;6309803;22;20019;-82
2023/03/05 12:15:58;;;;;;;5.45;1.40;;;;;;;;;;6309386;22;20028;-82
2023/03/05 12:18:25;;;;;;;10.75;4.18;;;;;;;;;;6282659;22;20011;-82
2023/03/05 12:20:55;;;;;;;3.67;1.25;;;;;;;;;;6281858;22;20023;-81
2023/03/05 12:23:21;;;;;;;4.60;1.20;;;;;;;;;;6278765;22;20016;-81
2023/03/05 12:25:49;;;;;;;6.88;2.47;;;;;;;;;;6283288;22;20016;-81
2023/03/05 12:28:35;;;;;;;3.50;1.10;;;;;;;;;;6310305;22;20011;-81
2023/03/05 12:31:25;;;;;;;2.92;0.80;;;;;;;;;;6277243;22;20020;-81
2023/03/05 12:33:51;;;;;;;2.88;0.82;;;;;;;;;;6305023;22;20114;-81
2023/03/05 12:36:18;;;;;;;3.67;0.95;;;;;;;;;;6279193;22;20024;-81
2023/03/05 12:38:54;;;;;;;4.75;1.10;;;;;;;;;;6282501;22;20058;-82
2023/03/05 12:41:24;;;;;;;3.15;0.90;;;;;;;;;;6310501;22;20019;-81
2023/03/05 12:44:05;;;;;;;4.35;0.98;;;;;;;;;;6306175;22;20376;-81
2023/03/05 12:46:36;;;;;;;7.35;1.52;;;;;;;;;;6308477;22;20055;-81
2023/03/05 12:49:19;;;;;;;4.13;0.80;;;;;;;;;;6277025;22;20094;-83
2023/03/05 12:51:49;;;;;;;2.80;0.77;;;;;;;;;;6301938;22;20059;-81
2023/03/05 12:54:21;;;;;;;5.18;1.10;;;;;;;;;;6301176;22;20024;-81
2023/03/05 12:56:49;;;;;;;5.50;1.38;;;;;;;;;;6301873;22;20028;-81
2023/03/05 12:59:18;;;;;;;3.25;0.82;;;;;;;;;;6304545;22;20030;-81
2023/03/05 13:01:46;;;;;;;3.08;0.93;;;;;;;;;;6305233;22;20028;-82
2023/03/05 13:04:18;;;;;;;4.47;1.17;;;;;;;;;;6300701;22;20008;-81
2023/03/05 13:06:45;;;;;;;7.28;2.83;;;;;;;;;;6273736;22;20644;-82
2023/03/05 13:09:14;;;;;;;4.25;1.15;;;;;;;;;;6271747;22;20512;-82
2023/03/05 13:11:41;;;;;;;2.83;0.90;;;;;;;;;;6298096;22;20817;-81
2023/03/05 13:14:28;;;;;;;3.10;1.00;;;;;;;;;;6296753;22;20027;-81
2023/03/05 13:16:55;;;;;;;3.60;0.93;;;;;;;;;;6270344;22;20386;-82
2023/03/05 13:19:21;;;;;;;8.38;1.88;;;;;;;;;;6298739;22;20030;-81
2023/03/05 13:21:58;;;;;;;6.57;2.80;;;;;;;;;;6297356;22;20027;-82
2023/03/05 13:24:25;;;;;;;4.97;1.95;;;;;;;;;;6296591;22;20547;-80
2023/03/05 13:26:51;;;;;;;5.72;2.72;;;;;;;;;;6270385;22;20066;-82
2023/03/05 13:29:19;;;;;;;3.97;1.60;;;;;;;;;;6270897;22;20020;-80
2023/03/05 13:32:03;;;;;;;5.15;1.60;;;;;;;;;;6271595;22;20024;-81
2023/03/05 13:34:35;;;;;;;8.48;3.08;;;;;;;;;;6298517;22;20028;-80
2023/03/05 13:37:12;;;;;;;4.70;1.80;;;;;;;;;;6300865;22;20047;-80
2023/03/05 13:39:46;;;;;;;4.68;2.15;;;;;;;;;;6269843;22;20102;-81
2023/03/05 13:42:21;;;;;;;4.47;1.40;;;;;;;;;;6271872;22;20032;-82
2023/03/05 13:44:58;;;;;;;4.70;1.73;;;;;;;;;;6270133;22;20024;-81
2023/03/05 13:47:27;;;;;;;5.07;2.00;;;;;;;;;;6299215;22;20019;-81
2023/03/05 13:49:55;;;;;;;11.00;4.82;;;;;;;;;;6299306;22;20023;-82
2023/03/05 13:52:22;;;;;;;7.32;3.05;;;;;;;;;;6300829;22;20020;-81
2023/03/05 13:54:49;;;;;;;5.65;2.80;;;;;;;;;;6298525;22;20034;-81
2023/03/05 13:57:32;;;;;;;4.00;2.08;;;;;;;;;;6298095;22;20019;-82
2023/03/05 13:59:59;;;;;;;4.55;1.88;;;;;;;;;;6300542;22;20024;-81
2023/03/05 14:02:27;;;;;;;3.47;1.70;;;;;;;;;;6272993;22;20019;-81
2023/03/05 14:04:54;;;;;;;4.70;1.70;;;;;;;;;;6298038;22;20669;-81
2023/03/05 14:07:26;;;;;;;4.43;2.00;;;;;;;;;;6302074;22;20019;-82
2023/03/05 14:09:53;;;;;;;6.00;2.17;;;;;;;;;;6300658;22;20081;-81
2023/03/05 14:12:31;;;;;;;6.13;2.42;;;;;;;;;;6301653;22;20461;-80
2023/03/05 14:14:58;;;;;;;7.32;4.07;;;;;;;;;;6301279;22;20057;-80
2023/03/05 14:17:31;;;;;;;7.63;3.30;;;;;;;;;;6273862;22;20110;-82
2023/03/05 14:20:07;;;;;;;4.85;1.98;;;;;;;;;;6301197;22;20114;-81
2023/03/05 14:22:36;;;;;;;7.63;2.25;;;;;;;;;;6273705;22;20077;-81
2023/03/05 14:25:04;;;;;;;5.47;2.10;;;;;;;;;;6272735;22;20028;-83
2023/03/05 14:27:33;;;;;;;7.30;2.80;;;;;;;;;;6302486;22;20024;-81
2023/03/05 14:29:59;;;;;;;6.47;1.70;;;;;;;;;;6300501;22;20027;-82
2023/03/05 14:32:31;;;;;;;4.68;1.60;;;;;;;;;;6300034;22;20098;-81
2023/03/05 14:34:59;;;;;;;4.20;1.30;;;;;;;;;;6298130;22;20026;-81
2023/03/05 14:37:28;;;;;;;3.30;1.35;;;;;;;;;;6301395;22;20028;-82
2023/03/05 14:39:56;;;;;;;4.20;1.52;;;;;;;;;;6301877;22;20027;-79
2023/03/05 14:42:29;;;;;;;4.10;1.30;;;;;;;;;;6274236;22;20023;-81
2023/03/05 14:44:57;;;;;;;3.92;1.30;;;;;;;;;;6298509;22;20063;-79
2023/03/05 14:47:24;;;;;;;2.85;1.15;;;;;;;;;;6299186;22;20035;-81
2023/03/05 14:49:50;;;;;;;6.85;1.33;;;;;;;;;;6299108;22;20105;-82